Time;durP1;ratioP1;P1;durP2;ratioP2;P2;SDS_P1;SDS_P2;PMS_P1;PMS_P2;Temp;Humidity;BMP_temperature;BMP_pressure;BME280_temperature;BME280_humidity;BME280_pressure;Samples;Min_cycle;Max_cycle;Signal;HPM_P1;HPM_P2
2021/11/16 00:01:50;;;;;;;;;;;;;;;;;;5034294;28;19931;-67
2021/11/16 00:04:27;;;;;;;;;;;;;;;;;;5048910;28;19921;-67
2021/11/16 00:06:55;;;;;;;;;;;;;;;;;;5046582;28;19928;-67
2021/11/16 00:09:24;;;;;;;;;;;;;;;;;;5045578;28;19931;-67
2021/11/16 00:11:54;;;;;;;;;;;;;;;;;;5055058;28;19921;-67
2021/11/16 00:14:23;;;;;;;;;;;;;;;;;;5047679;28;19936;-67
2021/11/16 00:16:51;;;;;;;;;;;;;;;;;;5038139;28;19958;-67
2021/11/16 00:19:21;;;;;;;;;;;;;;;;;;5044625;28;19925;-67
2021/11/16 00:21:50;;;;;;;;;;;;;;;;;;5040574;28;19947;-68
2021/11/16 00:25:20;;;;;;;;;;;;;;;;;;5043911;28;19951;-67
2021/11/16 00:27:16;;;;;;;;;;;;;;;;;;5034852;28;19952;-67
2021/11/16 00:29:47;;;;;;;;;;;;;;;;;;5046203;28;19940;-68
2021/11/16 00:32:21;;;;;;;;;;;;;;;;;;5047325;28;19925;-67
2021/11/16 00:34:48;;;;;;;;;;;;;;;;;;5048238;28;20002;-67
2021/11/16 00:37:25;;;;;;;;;;;;;;;;;;5050988;28;19928;-67
2021/11/16 00:39:52;;;;;;;;;;;;;;;;;;5052792;28;19921;-67
2021/11/16 00:42:21;;;;;;;;;;;;;;;;;;5050515;28;19925;-68
2021/11/16 00:44:52;;;;;;;;;;;;;;;;;;5047780;28;19985;-67
2021/11/16 00:47:20;;;;;;;;;;;;;;;;;;5051291;28;20399;-67
2021/11/16 00:49:52;;;;;;;;;;;;;;;;;;5052692;28;19921;-67
2021/11/16 00:52:20;;;;;;;;;;;;;;;;;;5049037;28;19935;-68
2021/11/16 00:54:50;;;;;;;;;;;;;;;;;;5054008;28;19928;-67
2021/11/16 00:57:18;;;;;;;;;;;;;;;;;;5049613;28;19926;-68
2021/11/16 00:59:48;;;;;;;;;;;;;;;;;;5044181;28;19920;-67
2021/11/16 01:02:20;;;;;;;;;;;;;;;;;;5049747;28;20506;-68
2021/11/16 01:04:52;;;;;;;;;;;;;;;;;;5058949;28;19921;-67
2021/11/16 01:07:23;;;;;;;;;;;;;;;;;;5050194;28;20232;-67
2021/11/16 01:09:55;;;;;;;;;;;;;;;;;;5051944;28;20019;-67
2021/11/16 01:12:25;;;;;;;;;;;;;;;;;;5047387;28;19924;-67
2021/11/16 01:14:58;;;;;;;;;;;;;;;;;;5048002;28;19920;-68
2021/11/16 01:17:26;;;;;;;;;;;;;;;;;;5048068;28;20524;-68
2021/11/16 01:19:57;;;;;;;;;;;;;;;;;;5041137;28;19982;-68
2021/11/16 01:22:29;;;;;;;;;;;;;;;;;;5049225;28;20033;-68
2021/11/16 01:24:56;;;;;;;;;;;;;;;;;;5047405;28;19925;-67
2021/11/16 01:27:34;;;;;;;;;;;;;;;;;;5049141;28;20001;-67
2021/11/16 01:30:05;;;;;;;;;;;;;;;;;;5053076;28;19996;-67
2021/11/16 01:35:04;;;;;;;;;;;;;;;;;;5054015;28;19927;-67
2021/11/16 01:37:35;;;;;;;;;;;;;;;;;;5050328;28;20330;-67
2021/11/16 01:40:07;;;;;;;;;;;;;;;;;;5047463;28;19953;-68
2021/11/16 01:42:40;;;;;;;;;;;;;;;;;;5039959;28;20561;-68
2021/11/16 01:45:07;;;;;;;;;;;;;;;;;;5051366;28;19925;-68
2021/11/16 01:47:37;;;;;;;;;;;;;;;;;;5042286;28;19928;-68
2021/11/16 01:50:06;;;;;;;;;;;;;;;;;;5050847;28;19921;-68
2021/11/16 01:52:39;;;;;;;;;;;;;;;;;;5049487;28;19928;-67
2021/11/16 01:55:08;;;;;;;;;;;;;;;;;;5050636;28;19929;-67
2021/11/16 01:57:38;;;;;;;;;;;;;;;;;;5055238;28;19958;-67
2021/11/16 02:00:08;;;;;;;;;;;;;;;;;;5070052;28;19920;-68
2021/11/16 02:02:39;;;;;;;;;;;;;;;;;;5076216;28;20297;-67
2021/11/16 02:05:08;;;;;;;;;;;;;;;;;;5069391;28;19931;-67
2021/11/16 02:07:38;;;;;;;;;;;;;;;;;;5067004;28;19920;-67
2021/11/16 02:10:07;;;;;;;;;;;;;;;;;;5065327;28;19920;-67
2021/11/16 02:12:41;;;;;;;;;;;;;;;;;;5064257;28;20447;-67
2021/11/16 02:15:09;;;;;;;;;;;;;;;;;;5071708;28;19927;-68
2021/11/16 02:17:39;;;;;;;;;;;;;;;;;;5069793;28;19920;-67
2021/11/16 02:20:07;;;;;;;;;;;;;;;;;;5070032;28;21193;-67
2021/11/16 02:22:37;;;;;;;;;;;;;;;;;;5051597;28;19931;-67
2021/11/16 02:25:09;;;;;;;;;;;;;;;;;;5066068;28;19920;-67
2021/11/16 02:27:40;;;;;;;;;;;;;;;;;;5075925;28;19927;-67
2021/11/16 02:30:07;;;;;;;;;;;;;;;;;;5069966;28;20371;-67
2021/11/16 02:32:40;;;;;;;;;;;;;;;;;;5075068;28;19921;-67
2021/11/16 02:35:10;;;;;;;;;;;;;;;;;;5065717;28;19985;-68
2021/11/16 02:37:38;;;;;;;;;;;;;;;;;;5058048;28;19929;-68
2021/11/16 02:40:10;;;;;;;;;;;;;;;;;;5070468;28;19924;-68
2021/11/16 02:42:41;;;;;;;;;;;;;;;;;;5072619;28;19958;-68
2021/11/16 02:45:10;;;;;;;;;;;;;;;;;;5063724;28;19924;-67
2021/11/16 02:47:38;;;;;;;;;;;;;;;;;;5074110;28;19972;-68
2021/11/16 02:50:09;;;;;;;;;;;;;;;;;;5069534;28;19924;-68
2021/11/16 02:52:38;;;;;;;;;;;;;;;;;;5075928;28;19920;-67
2021/11/16 02:55:08;;;;;;;;;;;;;;;;;;5078485;28;19920;-67
2021/11/16 02:57:38;;;;;;;;;;;;;;;;;;5058144;28;19927;-68
2021/11/16 03:00:11;;;;;;;;;;;;;;;;;;5070808;28;20321;-68
2021/11/16 03:02:41;;;;;;;;;;;;;;;;;;5063408;28;19954;-67
2021/11/16 03:05:11;;;;;;;;;;;;;;;;;;5063114;28;19930;-67
2021/11/16 03:07:46;;;;;;;;;;;;;;;;;;5073145;28;19961;-68
2021/11/16 03:10:15;;;;;;;;;;;;;;;;;;5058004;28;19920;-68
2021/11/16 03:12:42;;;;;;;;;;;;;;;;;;5064277;28;20396;-67
2021/11/16 03:15:11;;;;;;;;;;;;;;;;;;5072188;28;19920;-68
2021/11/16 03:17:39;;;;;;;;;;;;;;;;;;5068691;28;20653;-69
2021/11/16 03:20:07;;;;;;;;;;;;;;;;;;5065599;28;20320;-67
2021/11/16 03:22:37;;;;;;;;;;;;;;;;;;5065532;28;19920;-67
2021/11/16 03:25:06;;;;;;;;;;;;;;;;;;5071717;28;20381;-67
2021/11/16 03:27:38;;;;;;;;;;;;;;;;;;5065660;28;20517;-67
2021/11/16 03:30:08;;;;;;;;;;;;;;;;;;5057451;28;20460;-67
2021/11/16 03:32:38;;;;;;;;;;;;;;;;;;5062508;28;19921;-67
2021/11/16 03:35:09;;;;;;;;;;;;;;;;;;5064768;28;19920;-67
2021/11/16 03:37:43;;;;;;;;;;;;;;;;;;5045678;28;20320;-68
2021/11/16 03:40:12;;;;;;;8.93;8.13;;;;;;;;;;5064078;28;20410;-68
2021/11/16 03:42:57;;;;;;;10.15;9.15;;;;;;;;;;5058422;28;20473;-68
2021/11/16 03:45:30;;;;;;;9.65;8.75;;;;;;;;;;5063308;28;20418;-68
2021/11/16 03:48:00;;;;;;;9.95;8.95;;;;;;;;;;5045701;28;20470;-68
2021/11/16 03:50:29;;;;;;;;;;;;;;;;;;5070508;28;20916;-68
2021/11/16 03:52:59;;;;;;;;;;;;;;;;;;5065179;28;19920;-68
2021/11/16 03:55:31;;;;;;;;;;;;;;;;;;5067790;28;19924;-68
2021/11/16 03:58:00;;;;;;;;;;;;;;;;;;5057708;28;19980;-68
2021/11/16 04:00:29;;;;;;;;;;;;;;;;;;5068449;28;19924;-68
2021/11/16 04:02:57;;;;;;;;;;;;;;;;;;5059993;28;19921;-68
2021/11/16 04:05:28;;;;;;;;;;;;;;;;;;5065598;28;20312;-68
2021/11/16 04:07:57;;;;;;;;;;;;;;;;;;5073940;28;19924;-67
2021/11/16 04:10:27;;;;;;;;;;;;;;;;;;5064284;28;19924;-68
2021/11/16 04:12:57;;;;;;;;;;;;;;;;;;5055845;28;20019;-68
2021/11/16 04:15:29;;;;;;;;;;;;;;;;;;5072886;28;19932;-68
2021/11/16 04:17:57;;;;;;;;;;;;;;;;;;5059696;28;19935;-68
2021/11/16 04:20:28;;;;;;;;;;;;;;;;;;5068730;28;20356;-68
2021/11/16 04:22:59;;;;;;;;;;;;;;;;;;5065997;28;19920;-68
2021/11/16 04:25:32;;;;;;;;;;;;;;;;;;5063145;28;19924;-67
2021/11/16 04:28:10;;;;;;;;;;;;;;;;;;5079297;28;19920;-68
2021/11/16 04:30:40;;;;;;;;;;;;;;;;;;5064293;28;19936;-67
2021/11/16 04:33:10;;;;;;;;;;;;;;;;;;5067303;28;19950;-67
2021/11/16 04:35:39;;;;;;;;;;;;;;;;;;5066458;28;20357;-67
2021/11/16 04:38:08;;;;;;;;;;;;;;;;;;5067653;28;19924;-67
2021/11/16 04:40:41;;;;;;;;;;;;;;;;;;5061205;28;20382;-68
2021/11/16 04:43:14;;;;;;;;;;;;;;;;;;5073641;28;19961;-68
2021/11/16 04:45:48;;;;;;;;;;;;;;;;;;5061536;28;20254;-67
2021/11/16 04:48:49;;;;;;;;;;;;;;;;;;5059666;28;19955;-67
2021/11/16 05:04:38;;;;;;;;;;;;;;;;;;5064034;28;19950;-67
2021/11/16 05:07:12;;;;;;;;;;;;;;;;;;5067301;28;19955;-67
2021/11/16 05:09:52;;;;;;;;;;;;;;;;;;5060861;28;19921;-67
2021/11/16 05:12:24;;;;;;;;;;;;;;;;;;5066983;28;19921;-68
2021/11/16 05:14:55;;;;;;;;;;;;;;;;;;5064088;28;19921;-67
2021/11/16 05:17:27;;;;;;;;;;;;;;;;;;5065385;28;20019;-68
2021/11/16 05:19:55;;;;;;;;;;;;;;;;;;5042969;28;19920;-67
2021/11/16 05:22:24;;;;;;;;;;;;;;;;;;5070878;28;19920;-68
2021/11/16 05:24:53;;;;;;;;;;;;;;;;;;5071968;28;19928;-67
2021/11/16 05:27:24;;;;;;;13.10;11.80;;;;;;;;;;5071071;28;20433;-67
2021/11/16 05:30:08;;;;;;;13.10;11.80;;;;;;;;;;5049251;28;20402;-68
2021/11/16 05:32:38;;;;;;;13.35;11.95;;;;;;;;;;5067274;28;20491;-68
2021/11/16 05:35:14;;;;;;;13.90;12.40;;;;;;;;;;5058024;28;20890;-68
2021/11/16 05:37:44;;;;;;;13.73;12.32;;;;;;;;;;5052485;28;20479;-68
2021/11/16 05:40:19;;;;;;;13.90;12.50;;;;;;;;;;5056542;28;20390;-68
2021/11/16 05:42:49;;;;;;;13.77;12.38;;;;;;;;;;5064360;28;20851;-67
2021/11/16 05:45:18;;;;;;;13.82;12.43;;;;;;;;;;5072499;28;20389;-68
2021/11/16 05:47:53;;;;;;;13.53;12.17;;;;;;;;;;5069812;28;20389;-68
2021/11/16 05:50:36;;;;;;;13.53;12.23;;;;;;;;;;5048636;28;20927;-67
2021/11/16 05:53:09;;;;;;;14.60;13.20;;;;;;;;;;5052877;28;20410;-67
2021/11/16 05:55:38;;;;;;;15.30;13.13;;;;;;;;;;5063768;28;20497;-67
2021/11/16 05:58:08;;;;;;;14.73;13.32;;;;;;;;;;5044530;28;20414;-68
2021/11/16 06:00:39;;;;;;;14.90;13.43;;;;;;;;;;5046650;28;20396;-67
2021/11/16 06:03:10;;;;;;;14.57;13.18;;;;;;;;;;5040065;28;20394;-68
2021/11/16 06:05:38;;;;;;;14.20;12.80;;;;;;;;;;5030731;28;20396;-68
2021/11/16 06:08:10;;;;;;;15.55;13.95;;;;;;;;;;5049925;28;20433;-68
2021/11/16 06:10:42;;;;;;;14.77;13.27;;;;;;;;;;5048985;28;20891;-66
2021/11/16 06:13:15;;;;;;;15.73;14.13;;;;;;;;;;5048667;28;20894;-67
2021/11/16 06:15:45;;;;;;;16.40;14.25;;;;;;;;;;5047593;28;20417;-67
2021/11/16 06:18:17;;;;;;;16.02;14.32;;;;;;;;;;5054916;28;20394;-67
2021/11/16 06:20:46;;;;;;;16.87;15.17;;;;;;;;;;5041640;28;20396;-67
2021/11/16 06:23:14;;;;;;;16.15;14.45;;;;;;;;;;5037892;28;20378;-68
2021/11/16 06:25:46;;;;;;;18.58;14.98;;;;;;;;;;5047423;28;20504;-67
2021/11/16 06:28:16;;;;;;;16.08;14.32;;;;;;;;;;5048883;28;20741;-68
2021/11/16 06:30:45;;;;;;;16.67;14.97;;;;;;;;;;5044472;28;20495;-67
2021/11/16 06:33:12;;;;;;;15.55;13.98;;;;;;;;;;5052675;28;20468;-68
2021/11/16 06:35:41;;;;;;;16.25;14.27;;;;;;;;;;5046496;28;20404;-68
2021/11/16 06:38:11;;;;;;;16.35;14.40;;;;;;;;;;5030739;28;20438;-67
2021/11/16 06:40:47;;;;;;;15.80;14.07;;;;;;;;;;5040875;28;20400;-68
2021/11/16 06:43:24;;;;;;;15.80;14.20;;;;;;;;;;5056318;28;20967;-68
2021/11/16 06:46:09;;;;;;;15.68;14.05;;;;;;;;;;5051426;28;20404;-66
2021/11/16 06:48:38;;;;;;;15.82;14.05;;;;;;;;;;5019110;28;20408;-64
2021/11/16 06:51:11;;;;;;;16.00;14.13;;;;;;;;;;5051708;28;20980;-66
2021/11/16 06:53:41;;;;;;;21.13;15.00;;;;;;;;;;5044643;28;20478;-66
2021/11/16 06:56:11;;;;;;;129.45;32.35;;;;;;;;;;5037486;28;20431;-69
2021/11/16 06:58:47;;;;;;;126.78;32.33;;;;;;;;;;5056454;28;21046;-70
2021/11/16 07:01:19;;;;;;;97.18;28.13;;;;;;;;;;5075045;28;20401;-69
2021/11/16 07:03:52;;;;;;;83.32;26.40;;;;;;;;;;5063785;28;20405;-73
2021/11/16 07:06:19;;;;;;;72.10;23.77;;;;;;;;;;5072531;28;20382;-69
2021/11/16 07:08:58;;;;;;;61.08;21.10;;;;;;;;;;5041941;28;20402;-69
2021/11/16 07:11:30;;;;;;;52.03;20.30;;;;;;;;;;5071105;28;20468;-70
2021/11/16 07:14:05;;;;;;;48.55;19.27;;;;;;;;;;5067584;28;20520;-70
2021/11/16 07:16:42;;;;;;;42.15;17.95;;;;;;;;;;5055801;28;20413;-70
2021/11/16 07:19:16;;;;;;;36.47;17.33;;;;;;;;;;5064192;28;20404;-70
2021/11/16 07:21:47;;;;;;;36.08;16.60;;;;;;;;;;5075189;28;20394;-70
2021/11/16 07:24:18;;;;;;;35.97;16.25;;;;;;;;;;5071186;28;20478;-71
2021/11/16 07:26:57;;;;;;;30.05;15.18;;;;;;;;;;5049086;28;20401;-63
2021/11/16 07:29:53;;;;;;;27.02;14.88;;;;;;;;;;5047268;28;20401;-63
2021/11/16 07:32:47;;;;;;;24.47;14.07;;;;;;;;;;5067860;28;20501;-67
2021/11/16 07:35:16;;;;;;;;;;;;;;;;;;5062185;28;20770;-62
2021/11/16 07:37:47;;;;;;;25.15;13.68;;;;;;;;;;5067527;28;20388;-63
2021/11/16 07:40:17;;;;;;;;;;;;;;;;;;5046012;28;20844;-63
2021/11/16 07:42:53;;;;;;;;;;;;;;;;;;5058518;28;19945;-63
2021/11/16 07:45:23;;;;;;;;;;;;;;;;;;5064782;28;20577;-64
2021/11/16 07:47:54;;;;;;;;;;;;;;;;;;5043003;28;20396;-64
2021/11/16 07:50:24;;;;;;;;;;;;;;;;;;5063025;28;19940;-64
2021/11/16 07:52:55;;;;;;;;;;;;;;;;;;5060704;28;19962;-63
2021/11/16 07:55:25;;;;;;;;;;;;;;;;;;5066454;28;19950;-65
2021/11/16 07:57:56;;;;;;;;;;;;;;;;;;5065634;28;19958;-66
2021/11/16 08:00:27;;;;;;;;;;;;;;;;;;5064256;28;19938;-64
2021/11/16 08:03:04;;;;;;;;;;;;;;;;;;5063778;28;20045;-65
2021/11/16 08:08:36;;;;;;;;;;;;;;;;;;5057246;28;19923;-64
2021/11/16 08:11:07;;;;;;;;;;;;;;;;;;5060896;28;19992;-66
2021/11/16 08:13:37;;;;;;;;;;;;;;;;;;5060376;28;19920;-65
2021/11/16 08:16:05;;;;;;;;;;;;;;;;;;5067208;28;19947;-66
2021/11/16 08:18:36;;;;;;;;;;;;;;;;;;5067367;28;19952;-66
2021/11/16 08:21:08;;;;;;;;;;;;;;;;;;5080937;28;19967;-64
2021/11/16 08:23:37;;;;;;;;;;;;;;;;;;5063213;28;19920;-66
2021/11/16 08:26:10;;;;;;;;;;;;;;;;;;5065147;28;19990;-64
2021/11/16 08:28:39;;;;;;;;;;;;;;;;;;5058666;28;20005;-63
2021/11/16 08:31:08;;;;;;;;;;;;;;;;;;5064802;28;20239;-65
2021/11/16 08:33:41;;;;;;;;;;;;;;;;;;5055749;28;20354;-65
2021/11/16 08:36:12;;;;;;;;;;;;;;;;;;5062603;28;19958;-64
2021/11/16 08:38:43;;;;;;;;;;;;;;;;;;5060925;28;19948;-64
2021/11/16 08:41:15;;;;;;;;;;;;;;;;;;5064744;28;19920;-63
2021/11/16 08:43:44;;;;;;;;;;;;;;;;;;5066722;28;19920;-64
2021/11/16 08:46:17;;;;;;;;;;;;;;;;;;5067996;28;19931;-64
2021/11/16 08:48:57;;;;;;;;;;;;;;;;;;5054860;28;20862;-64
2021/11/16 08:51:27;;;;;;;;;;;;;;;;;;5058963;28;19921;-66
2021/11/16 08:54:00;;;;;;;;;;;;;;;;;;5062679;28;19935;-65
2021/11/16 08:56:36;;;;;;;;;;;;;;;;;;5067569;28;19955;-64
2021/11/16 08:59:10;;;;;;;;;;;;;;;;;;5059445;28;20268;-65
2021/11/16 09:01:42;;;;;;;;;;;;;;;;;;5075539;28;20533;-64
2021/11/16 09:04:12;;;;;;;;;;;;;;;;;;5063801;28;19926;-62
2021/11/16 09:06:40;;;;;;;;;;;;;;;;;;5070111;28;19920;-64
2021/11/16 09:09:12;;;;;;;;;;;;;;;;;;5074393;28;20008;-65
2021/11/16 09:11:44;;;;;;;;;;;;;;;;;;5068944;28;20262;-63
2021/11/16 09:14:11;;;;;;;;;;;;;;;;;;5068865;28;19934;-63
2021/11/16 09:16:43;;;;;;;;;;;;;;;;;;5067299;28;20676;-63
2021/11/16 09:19:15;;;;;;;;;;;;;;;;;;5068901;28;19936;-62
2021/11/16 09:21:48;;;;;;;;;;;;;;;;;;5068925;28;19947;-64
2021/11/16 09:24:19;;;;;;;;;;;;;;;;;;5058698;28;20294;-63
2021/11/16 09:26:58;;;;;;;;;;;;;;;;;;5068483;28;19920;-64
2021/11/16 09:29:30;;;;;;;;;;;;;;;;;;5068403;28;19936;-63
2021/11/16 09:32:01;;;;;;;;;;;;;;;;;;5058855;28;19932;-63
2021/11/16 09:34:34;;;;;;;;;;;;;;;;;;5068385;28;20580;-65
2021/11/16 09:37:05;;;;;;;;;;;;;;;;;;5064529;28;20429;-64
2021/11/16 09:39:34;;;;;;;;;;;;;;;;;;5069640;28;19946;-63
2021/11/16 09:42:05;;;;;;;;;;;;;;;;;;5058250;28;19928;-63
2021/11/16 09:44:40;;;;;;;;;;;;;;;;;;5049727;28;19924;-64
2021/11/16 09:47:08;;;;;;;;;;;;;;;;;;5068702;28;19920;-65
2021/11/16 09:49:39;;;;;;;;;;;;;;;;;;5067517;28;19920;-64
2021/11/16 09:52:08;;;;;;;;;;;;;;;;;;5069361;28;19953;-64
2021/11/16 09:54:36;;;;;;;;;;;;;;;;;;5072303;28;20005;-64
2021/11/16 09:57:06;;;;;;;;;;;;;;;;;;5074071;28;20379;-64
2021/11/16 09:59:33;;;;;;;;;;;;;;;;;;5065386;28;19962;-64
2021/11/16 10:02:04;;;;;;;;;;;;;;;;;;5074605;28;19939;-63
2021/11/16 10:04:42;;;;;;;;;;;;;;;;;;5069082;28;19928;-63
2021/11/16 10:07:16;;;;;;;;;;;;;;;;;;5061352;28;19920;-65
2021/11/16 10:09:45;;;;;;;;;;;;;;;;;;5062817;28;19921;-65
2021/11/16 10:12:17;;;;;;;;;;;;;;;;;;5073640;28;19966;-62
2021/11/16 10:14:48;;;;;;;;;;;;;;;;;;5063122;28;19925;-62
2021/11/16 10:17:23;;;;;;;;;;;;;;;;;;5069388;28;20472;-64
2021/11/16 10:19:52;;;;;;;;;;;;;;;;;;5062868;28;19924;-65
2021/11/16 10:22:19;;;;;;;;;;;;;;;;;;5069668;28;19924;-64
2021/11/16 10:24:50;;;;;;;;;;;;;;;;;;5060282;28;19924;-64
2021/11/16 10:27:20;;;;;;;;;;;;;;;;;;5070429;28;19935;-62
2021/11/16 10:29:47;;;;;;;;;;;;;;;;;;5065293;28;19927;-63
2021/11/16 10:32:14;;;;;;;;;;;;;;;;;;5069611;28;20380;-64
2021/11/16 10:34:43;;;;;;;;;;;;;;;;;;5066631;28;19921;-65
2021/11/16 10:37:14;;;;;;;10.17;9.17;;;;;;;;;;5079943;28;20619;-62
2021/11/16 10:39:42;;;;;;;10.60;9.23;;;;;;;;;;5069092;28;20721;-63
2021/11/16 10:42:16;;;;;;;11.45;9.02;;;;;;;;;;5072029;28;21041;-64
2021/11/16 10:44:59;;;;;;;12.30;9.00;;;;;;;;;;5030253;28;20386;-63
2021/11/16 10:47:35;;;;;;;11.43;9.63;;;;;;;;;;5063048;28;20457;-63
2021/11/16 10:50:12;;;;;;;10.82;9.18;;;;;;;;;;5062604;28;20425;-64
2021/11/16 10:52:41;;;;;;;11.43;9.25;;;;;;;;;;5055451;28;20865;-67
2021/11/16 10:55:11;;;;;;;11.70;9.37;;;;;;;;;;5065189;28;20933;-65
2021/11/16 10:58:03;;;;;;;10.88;8.80;;;;;;;;;;5077286;28;20502;-65
2021/11/16 11:00:31;;;;;;;10.02;8.88;;;;;;;;;;5045223;28;20433;-65
2021/11/16 11:03:15;;;;;;;10.63;9.48;;;;;;;;;;5061312;28;20972;-64
2021/11/16 11:05:46;;;;;;;11.82;10.63;;;;;;;;;;5061745;28;20487;-62
2021/11/16 11:08:33;;;;;;;11.95;9.75;;;;;;;;;;5058725;28;20407;-62
2021/11/16 11:11:06;;;;;;;11.20;9.82;;;;;;;;;;5051203;28;20431;-62
2021/11/16 11:13:36;;;;;;;11.70;10.00;;;;;;;;;;5051661;28;20723;-62
2021/11/16 11:16:17;;;;;;;10.82;9.73;;;;;;;;;;5066243;28;20398;-63
2021/11/16 11:18:50;;;;;;;10.57;9.47;;;;;;;;;;5066386;28;20483;-63
2021/11/16 11:21:27;;;;;;;11.63;10.02;;;;;;;;;;5048395;28;20493;-64
2021/11/16 11:24:11;;;;;;;11.45;10.25;;;;;;;;;;5060144;28;20406;-64
2021/11/16 11:26:49;;;;;;;10.57;9.48;;;;;;;;;;5062713;28;20390;-63
2021/11/16 11:29:37;;;;;;;10.85;9.75;;;;;;;;;;5062509;28;20395;-64
2021/11/16 11:32:36;;;;;;;10.73;9.40;;;;;;;;;;5076877;28;21101;-70
2021/11/16 11:35:11;;;;;;;10.38;8.55;;;;;;;;;;5055186;28;21121;-75
2021/11/16 11:37:51;;;;;;;11.68;9.27;;;;;;;;;;5072385;28;20413;-70
2021/11/16 11:40:31;;;;;;;13.80;9.15;;;;;;;;;;5064604;28;20394;-69
2021/11/16 11:43:06;;;;;;;11.05;9.85;;;;;;;;;;5049268;28;20394;-69
2021/11/16 11:45:37;;;;;;;10.93;9.40;;;;;;;;;;5063134;28;20404;-67
2021/11/16 11:48:05;;;;;;;10.60;9.48;;;;;;;;;;5053603;28;20966;-67
2021/11/16 11:50:44;;;;;;;11.05;9.48;;;;;;;;;;5061599;28;21352;-66
2021/11/16 11:53:21;;;;;;;10.57;9.40;;;;;;;;;;5065493;28;20463;-66
2021/11/16 11:56:02;;;;;;;9.88;8.88;;;;;;;;;;5058931;28;20398;-65
2021/11/16 11:58:35;;;;;;;10.90;8.97;;;;;;;;;;5054184;28;20407;-65
2021/11/16 12:01:28;;;;;;;9.93;8.88;;;;;;;;;;5047553;28;21107;-68
2021/11/16 12:03:57;;;;;;;9.83;8.47;;;;;;;;;;5068642;28;20506;-68
2021/11/16 12:06:33;;;;;;;9.55;8.50;;;;;;;;;;5049399;28;20463;-68
2021/11/16 12:09:06;;;;;;;9.35;8.35;;;;;;;;;;5058553;28;20908;-69
2021/11/16 12:11:37;;;;;;;9.75;7.85;;;;;;;;;;5044315;28;20840;-70
2021/11/16 12:14:09;;;;;;;9.93;8.43;;;;;;;;;;5036463;28;20378;-69
2021/11/16 12:16:48;;;;;;;9.63;8.13;;;;;;;;;;5060618;28;20408;-70
2021/11/16 12:19:16;;;;;;;9.35;7.65;;;;;;;;;;5052232;28;20378;-70
2021/11/16 12:21:45;;;;;;;9.93;8.27;;;;;;;;;;5068989;28;20424;-71
2021/11/16 12:24:31;;;;;;;9.15;7.90;;;;;;;;;;5077579;28;20426;-68
2021/11/16 12:27:00;;;;;;;8.40;7.60;;;;;;;;;;5056877;28;20378;-69
2021/11/16 12:29:29;;;;;;;8.35;7.55;;;;;;;;;;5051224;28;20445;-69
2021/11/16 12:32:11;;;;;;;8.77;7.28;;;;;;;;;;5062105;28;20410;-70
2021/11/16 12:34:41;;;;;;;8.02;7.15;;;;;;;;;;5052108;28;20791;-70
2021/11/16 12:37:09;;;;;;;9.75;7.32;;;;;;;;;;5044101;28;20402;-69
2021/11/16 12:39:54;;;;;;;8.25;7.35;;;;;;;;;;5057933;28;20386;-70
2021/11/16 12:42:21;;;;;;;10.13;7.35;;;;;;;;;;5064120;28;20406;-74
2021/11/16 12:44:51;;;;;;;8.98;7.95;;;;;;;;;;5059316;28;20396;-73
2021/11/16 12:47:18;;;;;;;8.00;6.88;;;;;;;;;;5059304;28;20402;-72
2021/11/16 12:49:49;;;;;;;8.30;7.47;;;;;;;;;;5056792;28;20390;-72
2021/11/16 12:52:19;;;;;;;8.43;7.30;;;;;;;;;;5061915;28;20396;-73
2021/11/16 12:54:53;;;;;;;8.05;7.13;;;;;;;;;;5055915;28;20398;-73
2021/11/16 12:57:29;;;;;;;8.15;7.35;;;;;;;;;;5062184;28;20413;-72
2021/11/16 12:59:59;;;;;;;;;;;;;;;;;;5058325;28;20454;-69
2021/11/16 13:02:26;;;;;;;;;;;;;;;;;;5043451;28;19978;-71
2021/11/16 13:04:55;;;;;;;;;;;;;;;;;;5056068;28;19971;-70
2021/11/16 13:07:25;;;;;;;;;;;;;;;;;;5061885;28;19952;-71
2021/11/16 13:09:58;;;;;;;;;;;;;;;;;;5062325;28;19967;-70
2021/11/16 13:12:30;;;;;;;;;;;;;;;;;;5077514;28;20296;-69
2021/11/16 13:15:01;;;;;;;;;;;;;;;;;;5061516;28;20500;-70
2021/11/16 13:17:29;;;;;;;;;;;;;;;;;;5059459;28;19975;-72
2021/11/16 13:19:59;;;;;;;;;;;;;;;;;;5060666;28;19963;-72
2021/11/16 13:22:30;;;;;;;;;;;;;;;;;;5063484;28;20433;-72
2021/11/16 13:25:00;;;;;;;;;;;;;;;;;;5062115;28;19959;-72
2021/11/16 13:27:31;;;;;;;;;;;;;;;;;;5058536;28;20419;-74
2021/11/16 13:29:59;;;;;;;;;;;;;;;;;;5055304;28;19967;-70
2021/11/16 13:32:35;;;;;;;;;;;;;;;;;;5056502;28;20422;-71
2021/11/16 13:35:03;;;;;;;;;;;;;;;;;;5057586;28;20603;-71
2021/11/16 13:37:32;;;;;;;;;;;;;;;;;;5053327;28;19970;-70
2021/11/16 13:40:03;;;;;;;;;;;;;;;;;;5049740;28;25155;-72
2021/11/16 13:42:32;;;;;;;;;;;;;;;;;;5063766;28;19973;-70
2021/11/16 13:45:01;;;;;;;;;;;;;;;;;;5059391;28;20370;-72
2021/11/16 13:47:38;;;;;;;;;;;;;;;;;;5059783;28;20002;-71
2021/11/16 13:50:17;;;;;;;;;;;;;;;;;;5061490;28;19961;-71
2021/11/16 13:52:47;;;;;;;;;;;;;;;;;;5060829;28;25072;-74
2021/11/16 13:55:15;;;;;;;;;;;;;;;;;;5066993;28;25116;-70
2021/11/16 13:57:46;;;;;;;;;;;;;;;;;;5067346;28;25078;-69
2021/11/16 14:00:14;;;;;;;;;;;;;;;;;;5063954;28;24969;-71
2021/11/16 14:02:50;;;;;;;;;;;;;;;;;;5062869;28;19979;-70
2021/11/16 14:05:24;;;;;;;;;;;;;;;;;;5076425;28;25143;-71
2021/11/16 14:07:55;;;;;;;;;;;;;;;;;;5069268;28;19978;-73
2021/11/16 14:10:28;;;;;;;;;;;;;;;;;;5063495;28;19952;-71
2021/11/16 14:12:59;;;;;;;;;;;;;;;;;;5061775;28;25080;-71
2021/11/16 14:15:26;;;;;;;;;;;;;;;;;;5063137;28;20477;-70
2021/11/16 14:18:09;;;;;;;7.80;7.00;;;;;;;;;;5065550;28;20477;-72
2021/11/16 14:20:40;;;;;;;;;;;;;;;;;;5044759;28;20478;-72
2021/11/16 14:23:10;;;;;;;;;;;;;;;;;;5068570;28;25131;-71
2021/11/16 14:25:37;;;;;;;;;;;;;;;;;;5065887;28;25052;-73
2021/11/16 14:28:08;;;;;;;;;;;;;;;;;;5063126;28;20196;-70
2021/11/16 14:30:39;;;;;;;;;;;;;;;;;;5057922;28;25057;-71
2021/11/16 14:33:10;;;;;;;;;;;;;;;;;;5070942;28;20662;-73
2021/11/16 14:35:41;;;;;;;;;;;;;;;;;;5065963;28;20229;-75
2021/11/16 14:38:12;;;;;;;;;;;;;;;;;;5080152;28;20219;-73
2021/11/16 14:40:42;;;;;;;;;;;;;;;;;;5064314;28;25082;-71
2021/11/16 14:43:13;;;;;;;;;;;;;;;;;;5062895;28;25148;-67
2021/11/16 14:45:42;;;;;;;;;;;;;;;;;;5040988;28;20453;-67
2021/11/16 14:48:17;;;;;;;;;;;;;;;;;;5050920;28;20512;-67
2021/11/16 14:50:48;;;;;;;;;;;;;;;;;;5056532;28;20489;-67
2021/11/16 14:53:17;;;;;;;;;;;;;;;;;;5061701;28;20490;-67
2021/11/16 14:55:47;;;;;;;;;;;;;;;;;;5063932;28;20429;-69
2021/11/16 14:58:21;;;;;;;10.10;9.10;;;;;;;;;;5059120;28;20468;-70
2021/11/16 15:01:00;;;;;;;;;;;;;;;;;;5045851;28;21638;-69
2021/11/16 15:03:29;;;;;;;;;;;;;;;;;;5057985;28;20491;-69
2021/11/16 15:06:02;;;;;;;11.33;9.93;;;;;;;;;;5062477;28;20773;-69
2021/11/16 15:08:35;;;;;;;10.80;9.30;;;;;;;;;;5061868;28;21154;-70
2021/11/16 15:11:03;;;;;;;;;;;;;;;;;;5072195;28;20427;-69
2021/11/16 15:13:34;;;;;;;10.30;9.20;;;;;;;;;;5064164;28;20467;-69
2021/11/16 15:16:04;;;;;;;;;;;;;;;;;;5067660;28;20474;-67
2021/11/16 15:18:35;;;;;;;10.30;9.20;;;;;;;;;;5063389;28;20457;-69
2021/11/16 15:21:29;;;;;;;10.20;9.20;;;;;;;;;;5051071;28;20442;-67
2021/11/16 15:24:22;;;;;;;;;;;;;;;;;;5060196;28;20502;-68
2021/11/16 15:26:51;;;;;;;;;;;;;;;;;;5067572;28;20480;-69
2021/11/16 15:29:23;;;;;;;;;;;;;;;;;;5058722;28;20355;-71
2021/11/16 15:31:51;;;;;;;;;;;;;;;;;;5073261;28;20104;-70
2021/11/16 15:34:22;;;;;;;;;;;;;;;;;;5064609;28;19967;-70
2021/11/16 15:36:51;;;;;;;;;;;;;;;;;;5063641;28;20005;-73
2021/11/16 15:39:23;;;;;;;;;;;;;;;;;;5062990;28;19974;-73
2021/11/16 15:41:59;;;;;;;;;;;;;;;;;;5062012;28;19980;-72
2021/11/16 15:44:50;;;;;;;;;;;;;;;;;;5065553;28;20573;-72
2021/11/16 15:47:56;;;;;;;;;;;;;;;;;;5064614;28;19971;-74
2021/11/16 15:50:40;;;;;;;;;;;;;;;;;;5046958;28;19967;-72
2021/11/16 15:58:58;;;;;;;;;;;;;;;;;;5060200;28;21129;-72
2021/11/16 16:01:26;;;;;;;;;;;;;;;;;;5071226;28;19971;-72
2021/11/16 16:03:56;;;;;;;;;;;;;;;;;;5064025;28;20505;-72
2021/11/16 16:06:26;;;;;;;;;;;;;;;;;;5065167;28;19971;-72
2021/11/16 16:08:55;;;;;;;;;;;;;;;;;;5062113;28;19972;-72
2021/11/16 16:11:24;;;;;;;;;;;;;;;;;;5057970;28;20394;-72
2021/11/16 16:13:54;;;;;;;;;;;;;;;;;;5065285;28;20535;-71
2021/11/16 16:16:25;;;;;;;;;;;;;;;;;;5063914;28;19968;-71
2021/11/16 16:18:56;;;;;;;;;;;;;;;;;;5062572;28;20027;-70
2021/11/16 16:21:25;;;;;;;;;;;;;;;;;;5069509;28;19970;-70
2021/11/16 16:23:56;;;;;;;;;;;;;;;;;;5062276;28;19968;-70
2021/11/16 16:26:24;;;;;;;;;;;;;;;;;;5064203;28;19975;-72
2021/11/16 16:28:54;;;;;;;;;;;;;;;;;;5042648;28;19974;-71
2021/11/16 16:31:23;;;;;;;;;;;;;;;;;;5061164;28;19967;-68
2021/11/16 16:33:51;;;;;;;;;;;;;;;;;;5062578;28;20427;-69
2021/11/16 16:36:21;;;;;;;;;;;;;;;;;;5062007;28;19971;-70
2021/11/16 16:38:54;;;;;;;;;;;;;;;;;;5062052;28;20019;-70
2021/11/16 16:41:25;;;;;;;;;;;;;;;;;;5066746;28;19977;-69
2021/11/16 16:43:55;;;;;;;;;;;;;;;;;;5059827;28;20331;-68
2021/11/16 16:46:24;;;;;;;;;;;;;;;;;;5060627;28;19967;-69
2021/11/16 16:48:55;;;;;;;;;;;;;;;;;;5052252;28;19963;-68
2021/11/16 16:51:27;;;;;;;;;;;;;;;;;;5064317;28;19970;-69
2021/11/16 16:53:58;;;;;;;;;;;;;;;;;;5062074;28;19966;-68
2021/11/16 16:56:28;;;;;;;;;;;;;;;;;;5061508;28;19972;-68